Time;durP1;ratioP1;P1;durP2;ratioP2;P2;SDS_P1;SDS_P2;PMS_P1;PMS_P2;Temp;Humidity;BMP_temperature;BMP_pressure;BME280_temperature;BME280_humidity;BME280_pressure;Samples;Min_cycle;Max_cycle;Signal;HPM_P1;HPM_P2
2022/08/07 00:00:20;;;;;;;25.73;9.97;;;;;;;17.18;98.82;100279.47;4850332;29;20291;-52
2022/08/07 00:02:54;;;;;;;19.17;9.73;;;;;;;17.21;99.01;100279.34;4850225;29;20297;-50
2022/08/07 00:05:25;;;;;;;29.03;12.47;;;;;;;17.31;99.03;100276.31;4843385;29;20359;-49
2022/08/07 00:07:58;;;;;;;42.17;21.50;;;;;;;17.38;99.23;100277.75;4820698;29;20323;-50
2022/08/07 00:10:31;;;;;;;25.70;13.03;;;;;;;17.43;99.36;100278.41;4831741;29;20605;-50
2022/08/07 00:13:06;;;;;;;24.90;10.57;;;;;;;17.49;99.60;100267.56;4831505;29;20367;-47
2022/08/07 00:15:54;;;;;;;25.93;9.20;;;;;;;17.63;100.00;100274.88;4831507;29;20306;-48
2022/08/07 00:18:28;;;;;;;30.50;10.87;;;;;;;17.71;100.00;100274.53;4831714;29;20315;-50
2022/08/07 00:21:00;;;;;;;31.50;11.33;;;;;;;17.76;99.93;100280.44;4831532;29;20604;-51
2022/08/07 00:23:38;;;;;;;19.07;9.13;;;;;;;17.75;99.97;100268.19;4831395;29;20347;-49
2022/08/07 00:26:10;;;;;;;21.50;10.67;;;;;;;17.82;99.92;100269.63;4831386;29;20298;-53
2022/08/07 00:29:03;;;;;;;20.10;9.60;;;;;;;17.84;99.82;100267.75;4831363;29;20359;-49
2022/08/07 00:31:34;;;;;;;18.47;9.30;;;;;;;17.83;99.75;100276.63;4831249;29;20306;-47
2022/08/07 00:34:10;;;;;;;18.37;9.20;;;;;;;17.85;99.73;100265.06;4831438;29;20553;-50
2022/08/07 00:36:44;;;;;;;22.20;9.47;;;;;;;17.86;99.79;100271.19;4831301;29;20298;-50
2022/08/07 00:39:16;;;;;;;19.30;9.20;;;;;;;17.89;99.85;100271.91;4831550;29;20315;-52
2022/08/07 00:41:53;;;;;;;23.33;8.77;;;;;;;17.92;100.00;100278.81;4831467;29;20291;-53
2022/08/07 00:44:35;;;;;;;18.40;9.57;;;;;;;17.95;100.00;100276.06;4831158;29;20584;-49
2022/08/07 00:47:10;;;;;;;25.23;9.83;;;;;;;18.04;100.00;100275.63;4830982;29;20280;-53
2022/08/07 00:50:01;;;;;;;21.13;9.80;;;;;;;18.16;100.00;100273.34;4831291;29;20284;-51
2022/08/07 00:52:52;;;;;;;23.60;9.17;;;;;;;18.18;100.00;100282.06;4831027;29;20311;-46
2022/08/07 00:55:23;;;;;;;19.83;9.33;;;;;;;18.27;100.00;100286.88;4830328;29;20453;-52
2022/08/07 00:58:14;;;;;;;25.33;9.30;;;;;;;18.36;100.00;100275.03;4823138;29;20284;-50
2022/08/07 01:00:46;;;;;;;20.13;8.97;;;;;;;18.45;100.00;100272.78;4812836;29;20296;-53
2022/08/07 01:03:22;;;;;;;24.60;9.87;;;;;;;18.48;100.00;100272.63;4812775;29;20292;-47
2022/08/07 01:06:13;;;;;;;18.53;9.37;;;;;;;18.45;100.00;100269.28;4816205;29;20316;-50
2022/08/07 01:08:45;;;;;;;17.50;8.67;;;;;;;18.31;100.00;100246.16;4818374;29;20288;-52
2022/08/07 01:11:22;;;;;;;15.47;8.80;;;;;;;18.48;100.00;100263.84;4812533;29;20288;-46
2022/08/07 01:14:13;;;;;;;20.07;8.80;;;;;;;18.54;100.00;100264.38;4812306;29;20642;-50
2022/08/07 01:16:46;;;;;;;17.87;9.00;;;;;;;18.56;100.00;100266.09;4812460;29;20630;-52
2022/08/07 01:19:18;;;;;;;19.60;9.40;;;;;;;18.53;100.00;100254.75;4812515;29;20292;-50
2022/08/07 01:21:53;;;;;;;19.13;9.20;;;;;;;18.59;100.00;100258.00;4812648;29;20288;-52
2022/08/07 01:24:24;;;;;;;22.73;9.70;;;;;;;18.60;100.00;100251.81;4812721;29;20296;-50
2022/08/07 01:26:56;;;;;;;20.80;9.23;;;;;;;18.66;100.00;100248.84;4812160;29;20280;-48
2022/08/07 01:29:28;;;;;;;17.93;9.90;;;;;;;18.77;100.00;100249.22;4812666;29;20367;-53
2022/08/07 01:32:04;;;;;;;20.00;8.97;;;;;;;18.76;100.00;100236.88;4812161;29;20453;-51
2022/08/07 01:34:44;;;;;;;17.37;9.73;;;;;;;18.86;100.00;100242.56;4812313;29;20331;-53
2022/08/07 01:37:18;;;;;;;19.23;9.73;;;;;;;18.85;99.46;100240.88;4812152;29;20315;-50
2022/08/07 01:39:49;;;;;;;17.10;8.90;;;;;;;18.80;99.16;100233.16;4812043;29;20288;-50
2022/08/07 01:42:20;;;;;;;16.80;8.53;;;;;;;18.77;98.73;100225.38;4812360;29;20337;-52
2022/08/07 01:45:12;;;;;;;16.13;8.57;;;;;;;18.73;98.97;100227.28;4811892;29;20495;-54
2022/08/07 01:47:47;;;;;;;16.13;8.87;;;;;;;18.78;99.24;100224.44;4811917;29;20321;-55
2022/08/07 01:50:38;;;;;;;18.37;8.63;;;;;;;18.66;99.14;100206.50;4811853;29;20291;-52
2022/08/07 01:53:14;;;;;;;15.53;8.73;;;;;;;18.86;99.30;100227.53;4817275;29;20315;-54
2022/08/07 01:55:54;;;;;;;16.00;8.40;;;;;;;18.78;99.11;100197.97;4829830;29;20738;-53
2022/08/07 01:58:26;;;;;;;12.53;7.80;;;;;;;18.90;98.97;100223.81;4829373;29;20562;-51
2022/08/07 02:01:07;;;;;;;17.73;9.00;;;;;;;18.88;98.87;100204.50;4827732;29;20288;-48
2022/08/07 02:04:04;;;;;;;15.23;7.27;;;;;;;18.87;98.80;100196.63;4826954;29;20299;-53
2022/08/07 02:06:36;;;;;;;12.40;8.23;;;;;;;18.95;98.64;100194.44;4829108;29;20587;-51
2022/08/07 02:09:12;;;;;;;12.30;7.87;;;;;;;19.03;99.05;100180.81;4827106;29;20297;-50
2022/08/07 02:12:17;;;;;;;10.53;7.23;;;;;;;19.12;98.80;100180.28;4828893;29;20300;-51
2022/08/07 02:14:59;;;;;;;10.53;7.20;;;;;;;19.31;98.97;100175.72;4827857;29;20389;-48
2022/08/07 02:17:35;;;;;;;9.47;6.90;;;;;;;19.53;99.00;100164.81;4826901;29;20311;-47
2022/08/07 02:20:08;;;;;;;9.80;6.23;;;;;;;19.76;98.61;100155.63;4828532;29;20299;-53
2022/08/07 02:22:54;;;;;;;8.37;5.63;;;;;;;20.06;98.08;100160.13;4828307;29;20307;-51
2022/08/07 02:25:27;;;;;;;7.63;6.10;;;;;;;20.29;97.26;100158.78;4828936;29;20287;-48
2022/08/07 02:28:20;;;;;;;7.23;5.23;;;;;;;20.52;96.28;100160.09;4826978;29;20275;-48
2022/08/07 02:30:55;;;;;;;8.57;5.80;;;;;;;20.74;95.02;100156.19;4825663;29;20591;-46
2022/08/07 02:33:27;;;;;;;7.77;6.23;;;;;;;21.10;95.54;100161.91;4810433;29;20364;-48
2022/08/07 02:36:20;;;;;;;10.83;6.60;;;;;;;21.03;94.22;100123.38;4810797;29;20294;-48
2022/08/07 02:39:04;;;;;;;9.33;6.13;;;;;;;21.41;93.46;100154.72;4810834;29;20349;-48
2022/08/07 02:41:49;;;;;;;6.83;5.83;;;;;;;21.44;92.23;100159.84;4819619;29;20569;-52
2022/08/07 02:44:26;;;;;;;9.30;6.67;;;;;;;21.51;91.87;100155.81;4828592;29;20291;-53
2022/08/07 02:47:04;;;;;;;9.50;6.10;;;;;;;21.56;91.34;100157.34;4827478;29;20295;-50
2022/08/07 02:49:35;;;;;;;10.53;7.30;;;;;;;21.46;90.88;100136.66;4824729;29;20290;-51
2022/08/07 02:52:33;;;;;;;12.40;7.97;;;;;;;21.72;90.31;100150.09;4825474;29;20280;-48
2022/08/07 02:55:07;;;;;;;11.23;6.80;;;;;;;21.84;89.81;100151.97;4826165;29;20587;-51
2022/08/07 02:58:03;;;;;;;9.80;6.50;;;;;;;22.04;89.55;100157.78;4825806;29;20312;-50
2022/08/07 03:00:35;;;;;;;10.37;6.50;;;;;;;21.96;88.15;100160.94;4825944;29;20403;-48
2022/08/07 03:03:10;;;;;;;8.73;6.67;;;;;;;21.79;87.57;100164.72;4824504;29;20640;-53
2022/08/07 03:05:42;;;;;;;10.17;6.57;;;;;;;21.58;87.49;100166.94;4825905;29;20525;-50
2022/08/07 03:08:14;;;;;;;8.90;6.17;;;;;;;21.37;87.07;100163.81;4825746;29;20286;-54
2022/08/07 03:10:46;;;;;;;8.37;5.97;;;;;;;21.31;87.61;100161.53;4825702;29;20057;-54
2022/08/07 03:13:20;;;;;;;9.57;5.60;;;;;;;21.23;87.80;100166.47;4825551;29;20449;-53
2022/08/07 03:15:53;;;;;;;6.63;5.13;;;;;;;21.26;87.80;100171.59;4824982;29;20300;-48
2022/08/07 03:18:28;;;;;;;6.63;5.53;;;;;;;21.65;88.19;100167.41;4824613;29;20283;-52
2022/08/07 03:21:06;;;;;;;7.23;5.53;;;;;;;22.04;88.18;100152.47;4824702;29;20292;-55
2022/08/07 03:23:42;;;;;;;7.03;5.87;;;;;;;22.36;86.49;100143.22;4825022;29;20288;-53
2022/08/07 03:26:34;;;;;;;9.20;5.43;;;;;;;22.29;84.76;100112.66;4824772;29;20292;-48
2022/08/07 03:29:29;;;;;;;8.67;6.20;;;;;;;22.28;84.99;100150.88;4824881;29;20342;-51
2022/08/07 03:32:06;;;;;;;8.43;6.37;;;;;;;22.09;85.88;100151.22;4825090;29;20125;-49
2022/08/07 03:34:44;;;;;;;8.97;6.53;;;;;;;21.93;85.90;100161.16;4825392;29;20069;-53
2022/08/07 03:37:39;;;;;;;10.00;6.00;;;;;;;21.54;85.30;100158.31;4825886;29;20174;-52
2022/08/07 03:40:23;;;;;;;8.73;6.87;;;;;;;21.33;85.74;100146.34;4827866;29;20294;-53
2022/08/07 03:43:05;;;;;;;11.30;6.53;;;;;;;21.21;86.38;100147.09;4827741;29;20070;-52
2022/08/07 03:45:45;;;;;;;11.43;6.27;;;;;;;21.17;86.88;100145.56;4827342;29;20058;-54
2022/08/07 03:48:17;;;;;;;8.57;6.20;;;;;;;21.58;88.29;100144.81;4827687;29;20306;-51
2022/08/07 03:50:49;;;;;;;9.23;6.47;;;;;;;22.21;88.74;100143.41;4827521;29;20327;-51
2022/08/07 03:53:26;;;;;;;9.98;6.57;;;;;;;22.64;86.97;100130.72;4827832;29;20611;-54
2022/08/07 03:56:20;;;;;;;10.97;6.17;;;;;;;22.96;84.92;100130.25;4827752;29;20046;-53
2022/08/07 03:59:04;;;;;;;8.87;5.47;;;;;;;23.09;83.57;100144.47;4827597;29;20228;-51
2022/08/07 04:01:45;;;;;;;10.05;5.53;;;;;;;23.22;83.06;100147.97;4827377;29;20058;-52
2022/08/07 04:04:18;;;;;;;8.63;5.13;;;;;;;23.15;82.33;100149.38;4827737;29;20066;-51
2022/08/07 04:06:50;;;;;;;12.70;5.93;;;;;;;23.20;81.47;100131.22;4827390;29;20103;-49
2022/08/07 04:09:22;;;;;;;9.20;5.60;;;;;;;23.40;81.47;100144.94;4828032;29;20054;-49
2022/08/07 04:12:00;;;;;;;;;;;;;;;23.44;80.74;100173.13;4827655;29;20253;-49
2022/08/07 04:14:52;;;;;;;10.10;5.67;;;;;;;23.21;81.06;100188.94;4827304;29;20176;-53
2022/08/07 04:17:26;;;;;;;10.77;5.83;;;;;;;23.14;81.41;100195.66;4828055;29;20085;-52
2022/08/07 04:20:18;;;;;;;10.10;6.10;;;;;;;23.03;80.82;100201.69;4828143;29;20062;-54
2022/08/07 04:22:49;;;;;;;7.60;5.70;;;;;;;22.92;80.69;100219.38;4827868;29;20054;-54
2022/08/07 04:25:24;;;;;;;12.13;5.70;;;;;;;22.81;81.12;100218.31;4827079;29;20090;-51
2022/08/07 04:27:58;;;;;;;8.67;6.10;;;;;;;22.75;80.82;100218.69;4827790;29;20408;-49
2022/08/07 04:30:29;;;;;;;12.33;7.40;;;;;;;22.62;80.88;100209.84;4827748;29;20065;-51
2022/08/07 04:33:16;;;;;;;9.13;6.37;;;;;;;22.58;82.15;100221.66;4827925;29;20069;-50
2022/08/07 04:35:47;;;;;;;9.33;5.97;;;;;;;22.53;82.28;100207.78;4827865;29;20327;-51
2022/08/07 04:38:20;;;;;;;8.17;5.77;;;;;;;22.30;82.16;100186.22;4827497;29;20114;-48
2022/08/07 04:40:51;;;;;;;11.37;7.40;;;;;;;22.38;82.51;100199.88;4826806;29;20054;-50
2022/08/07 04:43:31;;;;;;;12.83;6.57;;;;;;;22.54;82.61;100186.41;4827572;29;20066;-48
2022/08/07 04:46:30;;;;;;;12.63;6.30;;;;;;;22.83;82.60;100173.75;4827547;29;20084;-51
2022/08/07 04:49:12;;;;;;;12.77;6.23;;;;;;;23.13;82.01;100169.94;4826035;29;20097;-54
2022/08/07 04:51:57;;;;;;;9.43;5.37;;;;;;;23.31;80.94;100161.59;4826683;29;20327;-51
2022/08/07 04:54:35;;;;;;;7.80;5.60;;;;;;;23.33;79.94;100149.88;4826681;29;20066;-57
2022/08/07 04:57:15;;;;;;;11.30;5.73;;;;;;;23.57;80.78;100147.25;4827237;29;20262;-54
2022/08/07 05:00:09;;;;;;;8.17;5.00;;;;;;;23.66;79.25;100135.94;4826955;29;20141;-48
2022/08/07 05:03:05;;;;;;;10.13;5.40;;;;;;;23.71;79.70;100111.56;4827358;29;20050;-51
2022/08/07 05:06:04;;;;;;;8.53;5.37;;;;;;;23.91;79.85;100112.78;4826945;29;20062;-53
2022/08/07 05:08:54;;;;;;;6.70;5.43;;;;;;;24.07;79.23;100113.34;4826403;29;20054;-47
2022/08/07 05:11:33;;;;;;;7.13;5.40;;;;;;;24.07;78.80;100117.84;4827341;29;20935;-53
2022/08/07 05:14:31;;;;;;;8.60;5.70;;;;;;;23.82;78.52;100102.81;4826949;29;20058;-52
2022/08/07 05:17:23;;;;;;;9.27;6.07;;;;;;;23.90;78.78;100117.28;4826746;29;20054;-46
2022/08/07 05:20:16;;;;;;;6.80;5.77;;;;;;;24.04;78.80;100124.28;4827079;29;20082;-51
2022/08/07 05:22:52;;;;;;;9.33;6.67;;;;;;;24.11;78.11;100130.84;4825165;29;20054;-54
2022/08/07 05:25:25;;;;;;;8.47;6.37;;;;;;;23.98;78.43;100138.06;4827386;29;20066;-55
2022/08/07 05:28:17;;;;;;;8.90;6.00;;;;;;;23.75;78.38;100133.56;4826812;29;20325;-53
2022/08/07 05:30:53;;;;;;;10.67;6.23;;;;;;;23.59;78.78;100145.34;4827100;29;20459;-54
2022/08/07 05:33:27;;;;;;;11.50;7.03;;;;;;;23.57;79.80;100144.59;4827235;29;20268;-49
2022/08/07 05:35:57;;;;;;;9.47;6.70;;;;;;;;;;4826556;29;20058;-53
2022/08/07 05:38:30;;;;;;;11.23;6.53;;;;;;;23.54;79.14;100163.50;4827030;29;20204;-53
2022/08/07 05:41:21;;;;;;;11.27;7.30;;;;;;;23.48;78.74;100164.75;4826863;29;20373;-55
2022/08/07 05:44:14;;;;;;;8.27;6.73;;;;;;;23.43;79.61;100171.41;4826532;29;20084;-53
2022/08/07 05:46:58;;;;;;;11.30;6.17;;;;;;;23.37;79.30;100166.50;4826130;29;20115;-50
2022/08/07 05:49:31;;;;;;;10.80;7.03;;;;;;;23.24;80.15;100172.72;4826144;29;20054;-51
2022/08/07 05:52:09;;;;;;;9.87;6.97;;;;;;;23.20;80.01;100163.22;4824838;29;20302;-50
2022/08/07 05:54:42;;;;;;;9.73;6.73;;;;;;;23.21;80.81;100156.94;4825940;29;20056;-52
2022/08/07 05:57:26;;;;;;;12.37;7.37;;;;;;;23.22;80.64;100147.97;4826123;29;20407;-52
2022/08/07 06:00:03;;;;;;;9.23;6.70;;;;;;;23.30;80.79;100133.25;4825967;29;20062;-52
2022/08/07 06:02:36;;;;;;;17.30;7.07;;;;;;;23.54;81.00;100142.16;4825705;29;20107;-54
2022/08/07 06:05:11;;;;;;;10.00;7.10;;;;;;;23.95;80.70;100129.44;4826619;29;20073;-52
2022/08/07 06:07:45;;;;;;;11.90;7.37;;;;;;;24.31;79.23;100132.00;4826463;29;20058;-55
2022/08/07 06:10:38;;;;;;;9.37;6.60;;;;;;;24.65;77.77;100128.59;4826601;29;20066;-50
2022/08/07 06:13:11;;;;;;;9.93;6.83;;;;;;;24.80;76.26;100124.72;4826689;29;20051;-52
2022/08/07 06:15:46;;;;;;;13.73;7.97;;;;;;;24.80;76.67;100099.84;4826494;29;20085;-52
2022/08/07 06:18:20;;;;;;;10.43;6.77;;;;;;;24.73;75.33;100116.34;4826571;29;20293;-53
2022/08/07 06:20:56;;;;;;;13.15;7.10;;;;;;;24.50;76.06;100125.28;4826375;29;20278;-51
2022/08/07 06:23:47;;;;;;;9.43;7.77;;;;;;;24.41;76.86;100121.50;4826408;29;20137;-55
2022/08/07 06:26:42;;;;;;;8.73;6.03;;;;;;;24.42;77.28;100123.19;4826038;29;20042;-55
2022/08/07 06:29:13;;;;;;;10.23;7.10;;;;;;;24.40;77.42;100119.78;4825609;29;20104;-54
2022/08/07 06:31:44;;;;;;;8.90;5.60;;;;;;;24.35;76.75;100116.59;4826137;29;20074;-54
2022/08/07 06:34:19;;;;;;;9.73;7.67;;;;;;;24.17;76.53;100102.00;4826287;29;20062;-52
2022/08/07 06:36:50;;;;;;;10.67;6.87;;;;;;;24.09;77.39;100115.91;4825561;29;20057;-50
2022/08/07 06:39:22;;;;;;;12.37;8.63;;;;;;;23.94;78.73;100093.91;4826080;29;20058;-53
2022/08/07 06:42:19;;;;;;;8.60;6.63;;;;;;;24.06;77.50;100117.00;4825950;29;20051;-51
2022/08/07 06:45:05;;;;;;;10.53;6.37;;;;;;;24.12;77.98;100121.03;4826196;29;20062;-54
2022/08/07 06:47:40;;;;;;;11.40;6.93;;;;;;;24.09;78.59;100126.59;4826159;29;20064;-51
2022/08/07 06:50:28;;;;;;;12.20;6.45;;;;;;;23.90;77.79;100132.44;4825821;29;20058;-54
2022/08/07 06:53:01;;;;;;;10.60;7.90;;;;;;;23.80;78.76;100136.75;4825986;29;20269;-53
2022/08/07 06:55:35;;;;;;;9.70;6.77;;;;;;;23.63;79.35;100132.63;4826017;29;20280;-50
2022/08/07 06:58:28;;;;;;;16.70;7.13;;;;;;;23.38;79.70;100134.38;4826030;29;20352;-52
2022/08/07 07:01:03;;;;;;;9.83;7.07;;;;;;;23.19;80.36;100129.53;4825975;29;20050;-50
2022/08/07 07:03:35;;;;;;;14.20;7.63;;;;;;;23.04;80.95;100122.63;4825249;29;20077;-52
2022/08/07 07:06:20;;;;;;;9.93;6.87;;;;;;;22.95;82.00;100136.56;4825111;29;20066;-50
2022/08/07 07:08:54;;;;;;;13.33;7.63;;;;;;;22.83;82.16;100131.13;4825138;29;20073;-51
2022/08/07 07:11:27;;;;;;;13.17;7.87;;;;;;;22.78;82.54;100138.56;4826109;29;20061;-54
2022/08/07 07:14:22;;;;;;;10.47;7.57;;;;;;;22.70;83.17;100130.28;4828181;29;20062;-53
2022/08/07 07:16:57;;;;;;;17.83;9.50;;;;;;;22.62;83.81;100127.28;4829274;29;20072;-53
2022/08/07 07:19:33;;;;;;;13.73;7.93;;;;;;;22.58;84.65;100128.44;4829371;29;20054;-49
2022/08/07 07:22:25;;;;;;;17.57;9.87;;;;;;;22.52;84.50;100120.91;4828832;29;20050;-54
2022/08/07 07:25:11;;;;;;;14.43;9.73;;;;;;;22.54;85.10;100124.28;4828875;29;20068;-54
2022/08/07 07:28:15;;;;;;;15.30;8.27;;;;;;;22.51;85.05;100124.50;4828744;29;20080;-50
2022/08/07 07:31:14;;;;;;;12.87;8.13;;;;;;;22.48;85.79;100127.38;4829164;29;20058;-53
2022/08/07 07:33:55;;;;;;;13.20;8.73;;;;;;;22.48;85.99;100135.38;4828774;29;20058;-54
2022/08/07 07:36:27;;;;;;;12.13;8.13;;;;;;;22.32;86.33;100115.13;4828893;29;20058;-54
2022/08/07 07:39:03;;;;;;;13.77;8.53;;;;;;;22.41;86.19;100134.91;4828752;29;20050;-55
2022/08/07 07:41:38;;;;;;;15.93;8.50;;;;;;;22.35;86.37;100141.50;4828735;29;20061;-53
2022/08/07 07:44:29;;;;;;;14.97;8.97;;;;;;;22.29;86.39;100139.28;4828995;29;20106;-54
2022/08/07 07:47:04;;;;;;;17.13;8.90;;;;;;;22.22;86.24;100145.97;4828904;29;20189;-54
2022/08/07 07:49:53;;;;;;;17.30;9.70;;;;;;;22.18;86.84;100139.09;4828805;29;20054;-54
2022/08/07 07:52:46;;;;;;;15.57;10.70;;;;;;;22.17;87.71;100129.41;4828576;29;20050;-52
2022/08/07 07:55:20;;;;;;;18.53;9.47;;;;;;;22.11;87.24;100127.16;4828561;29;20055;-53
2022/08/07 07:57:52;;;;;;;18.00;9.70;;;;;;;22.03;87.57;100116.16;4828535;29;20077;-52
2022/08/07 08:00:29;;;;;;;16.87;10.30;;;;;;;22.04;87.97;100115.22;4828624;29;20126;-53
2022/08/07 08:03:09;;;;;;;20.03;11.43;;;;;;;22.03;87.80;100124.16;4828427;29;20285;-50
2022/08/07 08:05:46;;;;;;;21.50;11.93;;;;;;;21.85;87.70;100100.47;4828403;29;20308;-50
2022/08/07 08:08:29;;;;;;;25.50;12.80;;;;;;;21.93;88.17;100124.75;4828418;29;20939;-55
2022/08/07 08:11:07;;;;;;;17.63;10.17;;;;;;;21.92;88.31;100128.38;4828401;29;20066;-54
2022/08/07 08:13:49;;;;;;;21.17;13.40;;;;;;;21.79;88.44;100108.88;4827751;29;20050;-50
2022/08/07 08:16:29;;;;;;;15.40;11.30;;;;;;;21.90;89.05;100119.66;4827801;29;20087;-54
2022/08/07 08:19:05;;;;;;;22.60;13.73;;;;;;;21.89;88.96;100122.38;4826820;29;20074;-54
2022/08/07 08:27:54;;;;;;;18.23;11.40;;;;;;;21.81;89.80;100130.88;4827911;29;20069;-52
2022/08/07 08:30:35;;;;;;;23.27;9.30;;;;;;;21.77;89.79;100129.38;4826895;29;20046;-54
2022/08/07 08:33:17;;;;;;;28.60;12.23;;;;;;;21.71;89.75;100119.13;4827259;29;20253;-54
2022/08/07 08:35:54;;;;;;;;;;;;;;;21.64;89.94;100124.03;4828132;29;20065;-54
2022/08/07 08:38:28;;;;;;;13.93;10.37;;;;;;;21.60;90.29;100124.31;4827567;29;19928;-51
2022/08/07 08:41:16;;;;;;;17.20;8.70;;;;;;;21.56;90.50;100128.09;4827785;29;20054;-52
2022/08/07 08:43:55;;;;;;;15.00;8.80;;;;;;;21.53;90.94;100127.34;4827605;29;20068;-52
2022/08/07 08:46:39;;;;;;;14.60;8.57;;;;;;;21.50;91.57;100127.56;4827830;29;20072;-53
2022/08/07 08:49:21;;;;;;;19.27;9.37;;;;;;;21.44;91.71;100133.28;4827156;29;20066;-56
2022/08/07 08:52:11;;;;;;;17.05;9.73;;;;;;;21.33;91.81;100125.94;4826393;29;20521;-54
2022/08/07 08:54:53;;;;;;;24.13;12.07;;;;;;;21.24;91.13;100125.66;4826515;29;20061;-52
2022/08/07 08:57:33;;;;;;;22.45;10.13;;;;;;;21.15;91.12;100120.94;4826892;29;20621;-52
2022/08/07 09:00:07;;;;;;;20.07;8.43;;;;;;;20.91;90.85;100113.53;4825254;29;20058;-55
2022/08/07 09:02:45;;;;;;;19.10;8.97;;;;;;;20.92;90.88;100120.56;4826527;29;20100;-55
2022/08/07 09:05:38;;;;;;;16.97;9.30;;;;;;;20.83;90.49;100126.44;4825804;29;20425;-52
2022/08/07 09:08:18;;;;;;;;;;;;;;;20.76;90.50;100130.41;4825721;29;20317;-52
2022/08/07 09:11:10;;;;;;;18.93;9.00;;;;;;;20.73;90.45;100131.44;4826504;29;20016;-53
2022/08/07 09:14:05;;;;;;;18.00;10.63;;;;;;;20.55;90.40;100117.47;4824394;29;20361;-55
2022/08/07 09:16:49;;;;;;;18.97;9.20;;;;;;;20.58;90.40;100133.22;4825382;29;20522;-55
2022/08/07 09:19:41;;;;;;;16.50;8.27;;;;;;;20.43;90.42;100144.72;4825874;29;20317;-53
2022/08/07 09:22:39;;;;;;;17.70;9.40;;;;;;;20.29;90.80;100153.47;4826632;29;20376;-54
2022/08/07 09:25:44;;;;;;;20.77;10.73;;;;;;;20.17;91.06;100155.06;4826692;29;20307;-54
2022/08/07 09:28:32;;;;;;;21.40;10.20;;;;;;;20.08;91.27;100160.91;4826796;29;20295;-55
2022/08/07 09:31:37;;;;;;;25.60;14.00;;;;;;;19.99;91.56;100161.41;4826933;29;20295;-50
2022/08/07 09:34:25;;;;;;;20.90;11.17;;;;;;;19.89;91.74;100170.84;4827110;29;20291;-53
2022/08/07 09:37:02;;;;;;;23.42;10.45;;;;;;;19.81;91.77;100169.47;4825964;29;20312;-55
2022/08/07 09:39:45;;;;;;;24.93;9.83;;;;;;;19.61;91.86;100151.16;4827196;29;20121;-53
2022/08/07 09:42:49;;;;;;;15.70;9.67;;;;;;;19.68;92.06;100179.06;4827205;29;20577;-55
2022/08/07 09:45:34;;;;;;;18.57;9.97;;;;;;;19.61;92.02;100180.28;4827042;29;20314;-53
2022/08/07 09:48:42;;;;;;;19.37;9.43;;;;;;;19.44;91.99;100180.38;4827187;29;20280;-55
2022/08/07 09:51:51;;;;;;;17.83;9.48;;;;;;;19.44;92.39;100190.97;4826747;29;20581;-54
2022/08/07 09:54:46;;;;;;;23.90;9.93;;;;;;;19.25;92.59;100165.47;4826698;29;20074;-53
2022/08/07 09:57:48;;;;;;;19.23;9.97;;;;;;;19.32;92.75;100187.19;4825988;29;20066;-57
2022/08/07 10:00:22;;;;;;;19.70;10.73;;;;;;;19.23;93.09;100188.53;4826725;29;20292;-55
2022/08/07 10:03:28;;;;;;;19.37;8.70;;;;;;;19.13;93.07;100195.28;4826533;29;20581;-55
2022/08/07 10:06:47;;;;;;;19.45;9.75;;;;;;;19.13;93.16;100209.38;4825526;29;20299;-56
2022/08/07 10:09:52;;;;;;;20.83;10.00;;;;;;;19.11;93.39;100215.69;4825917;29;20483;-55
2022/08/07 10:12:54;;;;;;;25.90;9.87;;;;;;;19.10;93.67;100213.97;4826862;29;20293;-52
2022/08/07 10:15:55;;;;;;;22.83;11.33;;;;;;;19.10;93.72;100213.97;4825802;29;20532;-55
2022/08/07 10:18:51;;;;;;;23.30;11.80;;;;;;;18.98;93.71;100198.72;4825546;29;20388;-57
2022/08/07 10:21:41;;;;;;;20.97;11.20;;;;;;;19.02;93.75;100210.84;4826428;29;20290;-54
2022/08/07 10:24:46;;;;;;;22.30;12.40;;;;;;;19.01;93.79;100209.16;4825527;29;20284;-56
2022/08/07 10:27:36;;;;;;;27.33;13.07;;;;;;;18.98;94.05;100211.97;4826527;29;20355;-56
2022/08/07 10:30:19;;;;;;;26.13;11.93;;;;;;;18.93;94.22;100228.94;4825845;29;20311;-55
2022/08/07 10:33:23;;;;;;;27.60;11.40;;;;;;;18.89;94.19;100237.97;4826217;29;20616;-54
2022/08/07 10:36:29;;;;;;;19.57;9.00;;;;;;;18.85;94.42;100232.94;4825723;29;20307;-53
2022/08/07 10:39:17;;;;;;;26.30;10.80;;;;;;;18.89;94.49;100253.84;4826126;29;20288;-57
2022/08/07 10:41:55;;;;;;;22.27;10.10;;;;;;;18.92;94.37;100261.66;4826311;29;20291;-53
2022/08/07 10:44:46;;;;;;;24.90;11.97;;;;;;;18.91;94.33;100265.22;4826208;29;20354;-52
2022/08/07 10:47:32;;;;;;;30.53;14.03;;;;;;;18.85;94.43;100257.59;4826303;29;20295;-54
2022/08/07 10:50:30;;;;;;;26.37;13.80;;;;;;;18.86;94.66;100285.78;4829362;29;20283;-55
2022/08/07 10:53:08;;;;;;;26.90;13.73;;;;;;;18.88;94.86;100283.91;4829583;29;20335;-52
2022/08/07 10:55:52;;;;;;;22.20;13.13;;;;;;;18.86;94.94;100285.78;4829903;29;20463;-54
2022/08/07 10:58:39;;;;;;;22.97;9.87;;;;;;;18.81;95.17;100279.88;4828593;29;20046;-53
2022/08/07 11:01:37;;;;;;;20.07;9.27;;;;;;;18.84;94.93;100286.78;4829456;29;20303;-55
2022/08/07 11:04:41;;;;;;;19.10;9.13;;;;;;;18.81;94.70;100287.81;4829476;29;20296;-55
2022/08/07 11:07:26;;;;;;;17.40;8.10;;;;;;;18.81;94.87;100279.88;4828728;29;20298;-52
2022/08/07 11:10:32;;;;;;;16.87;7.33;;;;;;;18.82;94.65;100275.41;4829160;29;20299;-55
2022/08/07 11:13:13;;;;;;;16.70;7.95;;;;;;;18.83;94.83;100272.69;4829574;29;20303;-53
2022/08/07 11:16:09;;;;;;;19.27;7.88;;;;;;;18.86;94.51;100275.19;4829357;29;20054;-54
2022/08/07 11:18:47;;;;;;;14.50;7.50;;;;;;;18.82;94.58;100268.34;4829175;29;20065;-54
2022/08/07 11:21:29;;;;;;;18.48;8.40;;;;;;;18.80;94.51;100264.94;4829003;29;20311;-55
2022/08/07 11:24:10;;;;;;;16.57;8.10;;;;;;;18.80;94.44;100270.22;4828781;29;20058;-55
2022/08/07 11:26:47;;;;;;;17.23;8.77;;;;;;;18.73;94.45;100252.91;4828943;29;20581;-54
2022/08/07 11:29:29;;;;;;;15.93;8.68;;;;;;;18.78;94.36;100261.50;4829372;29;20292;-57
2022/08/07 11:32:17;;;;;;;21.23;9.30;;;;;;;18.73;94.47;100255.53;4828694;29;20078;-54
2022/08/07 11:34:58;;;;;;;22.07;8.90;;;;;;;18.65;94.68;100249.78;4828880;29;20330;-55
2022/08/07 11:37:56;;;;;;;20.80;9.53;;;;;;;18.71;94.92;100260.06;4828809;29;20299;-56
2022/08/07 11:40:52;;;;;;;26.83;9.80;;;;;;;18.68;95.16;100254.91;4828002;29;20302;-55
2022/08/07 11:43:26;;;;;;;25.33;11.10;;;;;;;18.68;95.25;100249.63;4828487;29;20295;-55
2022/08/07 11:46:45;;;;;;;23.40;10.90;;;;;;;18.60;95.45;100247.38;4828147;29;20311;-56
2022/08/07 11:49:42;;;;;;;21.77;11.20;;;;;;;18.56;95.77;100247.59;4828611;29;20703;-55
2022/08/07 11:53:02;;;;;;;26.60;11.97;;;;;;;18.53;95.86;100244.16;4828442;29;20284;-56
2022/08/07 11:55:54;;;;;;;26.70;11.63;;;;;;;18.50;96.00;100257.53;4827912;29;20343;-55
2022/08/07 11:58:57;;;;;;;21.60;10.03;;;;;;;18.44;96.17;100247.25;4827239;29;20592;-55
2022/08/07 12:01:46;;;;;;;23.27;11.23;;;;;;;18.42;96.26;100254.44;4827091;29;20299;-56
2022/08/07 12:04:43;;;;;;;23.60;10.93;;;;;;;18.41;96.55;100251.84;4827615;29;20564;-57
2022/08/07 12:07:20;;;;;;;36.17;11.03;;;;;;;18.37;96.58;100251.16;4827642;29;20298;-57
2022/08/07 12:10:03;;;;;;;23.30;10.80;;;;;;;18.22;96.78;100236.88;4827647;29;20341;-54
2022/08/07 12:12:41;;;;;;;26.40;10.45;;;;;;;18.29;96.79;100253.28;4827684;29;21204;-55
2022/08/07 12:15:16;;;;;;;26.67;11.63;;;;;;;18.30;96.95;100239.16;4827613;29;20076;-55
2022/08/07 12:18:14;;;;;;;19.57;10.40;;;;;;;18.27;97.00;100234.00;4827220;29;20384;-55
2022/08/07 12:21:18;;;;;;;23.13;10.03;;;;;;;18.25;97.05;100235.88;4826962;29;20314;-51
2022/08/07 12:24:17;;;;;;;23.20;9.63;;;;;;;18.24;97.33;100228.84;4827225;29;20308;-54
2022/08/07 12:27:13;;;;;;;18.38;9.23;;;;;;;18.19;97.12;100225.56;4827465;29;20364;-56
2022/08/07 12:29:54;;;;;;;25.83;9.90;;;;;;;18.08;97.11;100208.44;4827431;29;20070;-55
2022/08/07 12:32:31;;;;;;;26.33;10.17;;;;;;;18.15;97.11;100218.75;4826622;29;20316;-56
2022/08/07 12:35:05;;;;;;;20.47;9.63;;;;;;;18.13;97.26;100217.97;4826861;29;20300;-55